sensor_id;sensor_type;location;lat;lon;timestamp;P1;durP1;ratioP1;P2;durP2;ratioP2
67776;SDS011;54576;52.020;5.536;2022-07-19T00:00:37;9.13;;;2.75;;
67776;SDS011;54576;52.020;5.536;2022-07-19T00:03:02;6.20;;;2.92;;
67776;SDS011;54576;52.020;5.536;2022-07-19T00:05:28;4.10;;;3.15;;
67776;SDS011;54576;52.020;5.536;2022-07-19T00:07:54;5.80;;;2.88;;
67776;SDS011;54576;52.020;5.536;2022-07-19T00:10:20;3.92;;;2.50;;
67776;SDS011;54576;52.020;5.536;2022-07-19T00:12:46;6.55;;;2.92;;
67776;SDS011;54576;52.020;5.536;2022-07-19T00:15:13;3.20;;;2.70;;
67776;SDS011;54576;52.020;5.536;2022-07-19T00:17:40;5.55;;;3.15;;
67776;SDS011;54576;52.020;5.536;2022-07-19T00:20:08;6.07;;;3.25;;
67776;SDS011;54576;52.020;5.536;2022-07-19T00:22:35;2.75;;;2.50;;
67776;SDS011;54576;52.020;5.536;2022-07-19T00:25:01;4.90;;;2.58;;
67776;SDS011;54576;52.020;5.536;2022-07-19T00:27:27;4.90;;;3.13;;
67776;SDS011;54576;52.020;5.536;2022-07-19T00:29:52;3.20;;;2.90;;
67776;SDS011;54576;52.020;5.536;2022-07-19T00:32:18;7.30;;;2.70;;
67776;SDS011;54576;52.020;5.536;2022-07-19T00:34:44;11.93;;;2.95;;
67776;SDS011;54576;52.020;5.536;2022-07-19T00:37:09;3.95;;;2.70;;
67776;SDS011;54576;52.020;5.536;2022-07-19T00:39:35;7.80;;;2.92;;
67776;SDS011;54576;52.020;5.536;2022-07-19T00:42:01;4.93;;;2.90;;
67776;SDS011;54576;52.020;5.536;2022-07-19T00:44:27;2.97;;;2.42;;
67776;SDS011;54576;52.020;5.536;2022-07-19T00:46:52;5.65;;;3.03;;
67776;SDS011;54576;52.020;5.536;2022-07-19T00:49:18;3.30;;;2.83;;
67776;SDS011;54576;52.020;5.536;2022-07-19T00:51:44;3.33;;;2.95;;
67776;SDS011;54576;52.020;5.536;2022-07-19T00:54:11;5.93;;;2.55;;
67776;SDS011;54576;52.020;5.536;2022-07-19T00:56:37;4.43;;;3.15;;
67776;SDS011;54576;52.020;5.536;2022-07-19T00:59:05;7.45;;;3.40;;
67776;SDS011;54576;52.020;5.536;2022-07-19T01:01:35;5.95;;;3.65;;
67776;SDS011;54576;52.020;5.536;2022-07-19T01:04:00;5.03;;;3.40;;
67776;SDS011;54576;52.020;5.536;2022-07-19T01:06:26;6.55;;;3.05;;
67776;SDS011;54576;52.020;5.536;2022-07-19T01:08:52;5.15;;;3.00;;
67776;SDS011;54576;52.020;5.536;2022-07-19T01:11:17;10.82;;;3.13;;
67776;SDS011;54576;52.020;5.536;2022-07-19T01:13:43;5.85;;;3.50;;
67776;SDS011;54576;52.020;5.536;2022-07-19T01:16:08;6.60;;;3.03;;
67776;SDS011;54576;52.020;5.536;2022-07-19T01:18:34;10.23;;;3.33;;
67776;SDS011;54576;52.020;5.536;2022-07-19T01:21:00;8.80;;;3.40;;
67776;SDS011;54576;52.020;5.536;2022-07-19T01:25:55;5.28;;;3.10;;
67776;SDS011;54576;52.020;5.536;2022-07-19T01:28:20;3.55;;;3.22;;
67776;SDS011;54576;52.020;5.536;2022-07-19T01:30:46;15.43;;;3.47;;
67776;SDS011;54576;52.020;5.536;2022-07-19T01:33:12;9.57;;;3.50;;
67776;SDS011;54576;52.020;5.536;2022-07-19T01:35:37;4.90;;;3.00;;
67776;SDS011;54576;52.020;5.536;2022-07-19T01:38:03;9.15;;;3.58;;
67776;SDS011;54576;52.020;5.536;2022-07-19T01:40:28;4.55;;;2.97;;
67776;SDS011;54576;52.020;5.536;2022-07-19T01:42:54;4.20;;;2.67;;
67776;SDS011;54576;52.020;5.536;2022-07-19T01:45:20;4.07;;;2.88;;
67776;SDS011;54576;52.020;5.536;2022-07-19T01:47:46;4.32;;;3.10;;
67776;SDS011;54576;52.020;5.536;2022-07-19T01:50:13;6.10;;;3.50;;
67776;SDS011;54576;52.020;5.536;2022-07-19T01:52:40;4.75;;;3.25;;
67776;SDS011;54576;52.020;5.536;2022-07-19T01:55:06;4.72;;;3.22;;
67776;SDS011;54576;52.020;5.536;2022-07-19T01:57:32;3.50;;;2.95;;
67776;SDS011;54576;52.020;5.536;2022-07-19T01:59:58;3.63;;;2.92;;
67776;SDS011;54576;52.020;5.536;2022-07-19T02:02:24;4.85;;;3.28;;
67776;SDS011;54576;52.020;5.536;2022-07-19T02:04:49;4.57;;;2.88;;
67776;SDS011;54576;52.020;5.536;2022-07-19T02:07:15;8.27;;;3.17;;
67776;SDS011;54576;52.020;5.536;2022-07-19T02:09:41;5.97;;;3.15;;
67776;SDS011;54576;52.020;5.536;2022-07-19T02:12:07;4.35;;;2.90;;
67776;SDS011;54576;52.020;5.536;2022-07-19T02:14:32;9.20;;;3.10;;
67776;SDS011;54576;52.020;5.536;2022-07-19T02:16:58;4.13;;;3.03;;
67776;SDS011;54576;52.020;5.536;2022-07-19T02:19:24;9.93;;;2.88;;
67776;SDS011;54576;52.020;5.536;2022-07-19T02:21:49;6.88;;;3.22;;
67776;SDS011;54576;52.020;5.536;2022-07-19T02:24:15;6.45;;;3.20;;
67776;SDS011;54576;52.020;5.536;2022-07-19T02:26:41;4.35;;;2.97;;
67776;SDS011;54576;52.020;5.536;2022-07-19T02:29:07;5.22;;;3.13;;
67776;SDS011;54576;52.020;5.536;2022-07-19T02:31:33;7.88;;;3.35;;
67776;SDS011;54576;52.020;5.536;2022-07-19T02:33:59;3.92;;;3.15;;
67776;SDS011;54576;52.020;5.536;2022-07-19T02:36:24;8.00;;;3.10;;
67776;SDS011;54576;52.020;5.536;2022-07-19T02:38:50;4.18;;;2.95;;
67776;SDS011;54576;52.020;5.536;2022-07-19T02:41:16;6.57;;;3.50;;
67776;SDS011;54576;52.020;5.536;2022-07-19T02:43:42;6.25;;;3.47;;
67776;SDS011;54576;52.020;5.536;2022-07-19T02:46:08;4.60;;;3.33;;
67776;SDS011;54576;52.020;5.536;2022-07-19T02:48:33;5.88;;;2.90;;
67776;SDS011;54576;52.020;5.536;2022-07-19T02:51:04;6.90;;;2.90;;
67776;SDS011;54576;52.020;5.536;2022-07-19T02:53:35;3.22;;;2.85;;
67776;SDS011;54576;52.020;5.536;2022-07-19T02:56:00;7.28;;;2.90;;
67776;SDS011;54576;52.020;5.536;2022-07-19T02:58:26;10.20;;;3.30;;
67776;SDS011;54576;52.020;5.536;2022-07-19T03:00:51;4.70;;;3.13;;
67776;SDS011;54576;52.020;5.536;2022-07-19T03:03:17;3.42;;;2.90;;
67776;SDS011;54576;52.020;5.536;2022-07-19T03:06:01;3.78;;;3.13;;
67776;SDS011;54576;52.020;5.536;2022-07-19T03:08:27;6.97;;;3.58;;
67776;SDS011;54576;52.020;5.536;2022-07-19T03:10:52;4.03;;;2.95;;
67776;SDS011;54576;52.020;5.536;2022-07-19T03:13:18;3.88;;;3.20;;
67776;SDS011;54576;52.020;5.536;2022-07-19T03:15:43;4.32;;;2.88;;
67776;SDS011;54576;52.020;5.536;2022-07-19T03:18:10;6.47;;;3.53;;
67776;SDS011;54576;52.020;5.536;2022-07-19T03:20:36;10.23;;;3.47;;
67776;SDS011;54576;52.020;5.536;2022-07-19T03:23:01;5.95;;;3.28;;
67776;SDS011;54576;52.020;5.536;2022-07-19T03:25:27;4.15;;;3.38;;
67776;SDS011;54576;52.020;5.536;2022-07-19T03:27:53;5.03;;;3.10;;
67776;SDS011;54576;52.020;5.536;2022-07-19T03:30:18;3.75;;;3.15;;
67776;SDS011;54576;52.020;5.536;2022-07-19T03:32:44;3.53;;;3.22;;
67776;SDS011;54576;52.020;5.536;2022-07-19T03:35:10;4.88;;;3.70;;
67776;SDS011;54576;52.020;5.536;2022-07-19T03:37:35;6.07;;;3.03;;
67776;SDS011;54576;52.020;5.536;2022-07-19T03:40:01;7.00;;;3.92;;
67776;SDS011;54576;52.020;5.536;2022-07-19T03:42:27;8.23;;;3.50;;
67776;SDS011;54576;52.020;5.536;2022-07-19T03:44:53;7.15;;;4.00;;
67776;SDS011;54576;52.020;5.536;2022-07-19T03:47:18;3.63;;;3.33;;
67776;SDS011;54576;52.020;5.536;2022-07-19T03:49:44;3.53;;;2.95;;
67776;SDS011;54576;52.020;5.536;2022-07-19T03:52:10;7.43;;;3.22;;
67776;SDS011;54576;52.020;5.536;2022-07-19T03:54:36;13.35;;;4.35;;
67776;SDS011;54576;52.020;5.536;2022-07-19T03:57:01;10.68;;;3.70;;
67776;SDS011;54576;52.020;5.536;2022-07-19T03:59:27;7.78;;;3.83;;
67776;SDS011;54576;52.020;5.536;2022-07-19T04:01:53;6.80;;;3.83;;
67776;SDS011;54576;52.020;5.536;2022-07-19T04:04:18;7.55;;;3.63;;
67776;SDS011;54576;52.020;5.536;2022-07-19T04:06:44;9.10;;;3.45;;
67776;SDS011;54576;52.020;5.536;2022-07-19T04:09:09;10.45;;;3.42;;
67776;SDS011;54576;52.020;5.536;2022-07-19T04:11:35;5.10;;;3.33;;
67776;SDS011;54576;52.020;5.536;2022-07-19T04:14:01;10.15;;;3.33;;
67776;SDS011;54576;52.020;5.536;2022-07-19T04:16:26;8.20;;;3.70;;
67776;SDS011;54576;52.020;5.536;2022-07-19T04:18:52;5.63;;;3.40;;
67776;SDS011;54576;52.020;5.536;2022-07-19T04:21:18;13.93;;;3.78;;
67776;SDS011;54576;52.020;5.536;2022-07-19T04:23:43;12.52;;;3.70;;
67776;SDS011;54576;52.020;5.536;2022-07-19T04:26:09;8.50;;;3.50;;
67776;SDS011;54576;52.020;5.536;2022-07-19T04:28:34;10.55;;;3.75;;
67776;SDS011;54576;52.020;5.536;2022-07-19T04:31:00;6.28;;;3.45;;
67776;SDS011;54576;52.020;5.536;2022-07-19T04:33:26;15.65;;;3.70;;
67776;SDS011;54576;52.020;5.536;2022-07-19T04:35:51;10.57;;;3.33;;
67776;SDS011;54576;52.020;5.536;2022-07-19T04:38:18;5.13;;;3.38;;
67776;SDS011;54576;52.020;5.536;2022-07-19T04:40:44;8.48;;;3.60;;
67776;SDS011;54576;52.020;5.536;2022-07-19T04:43:10;4.25;;;3.10;;
67776;SDS011;54576;52.020;5.536;2022-07-19T04:45:36;4.00;;;3.45;;
67776;SDS011;54576;52.020;5.536;2022-07-19T04:48:01;12.00;;;3.75;;
67776;SDS011;54576;52.020;5.536;2022-07-19T04:50:27;9.40;;;3.72;;
67776;SDS011;54576;52.020;5.536;2022-07-19T04:52:53;10.68;;;3.33;;
67776;SDS011;54576;52.020;5.536;2022-07-19T04:55:18;8.02;;;3.78;;
67776;SDS011;54576;52.020;5.536;2022-07-19T04:57:44;6.00;;;3.80;;
67776;SDS011;54576;52.020;5.536;2022-07-19T05:00:09;6.82;;;3.30;;
67776;SDS011;54576;52.020;5.536;2022-07-19T05:02:36;3.55;;;3.10;;
67776;SDS011;54576;52.020;5.536;2022-07-19T05:05:03;4.38;;;3.40;;
67776;SDS011;54576;52.020;5.536;2022-07-19T05:07:29;8.05;;;3.08;;
67776;SDS011;54576;52.020;5.536;2022-07-19T05:09:55;11.40;;;3.90;;
67776;SDS011;54576;52.020;5.536;2022-07-19T05:12:21;7.25;;;3.35;;
67776;SDS011;54576;52.020;5.536;2022-07-19T05:14:47;5.78;;;3.10;;
67776;SDS011;54576;52.020;5.536;2022-07-19T05:17:12;13.13;;;3.55;;
67776;SDS011;54576;52.020;5.536;2022-07-19T05:19:39;8.50;;;3.42;;
67776;SDS011;54576;52.020;5.536;2022-07-19T05:22:05;7.30;;;3.38;;
67776;SDS011;54576;52.020;5.536;2022-07-19T05:24:31;8.80;;;3.60;;
67776;SDS011;54576;52.020;5.536;2022-07-19T05:26:56;6.05;;;3.65;;
67776;SDS011;54576;52.020;5.536;2022-07-19T05:29:22;8.57;;;3.55;;
67776;SDS011;54576;52.020;5.536;2022-07-19T05:31:47;12.98;;;4.38;;
67776;SDS011;54576;52.020;5.536;2022-07-19T05:34:13;8.32;;;3.88;;
67776;SDS011;54576;52.020;5.536;2022-07-19T05:36:38;11.00;;;3.55;;
67776;SDS011;54576;52.020;5.536;2022-07-19T05:39:04;12.82;;;4.70;;
67776;SDS011;54576;52.020;5.536;2022-07-19T05:41:30;13.02;;;4.07;;
67776;SDS011;54576;52.020;5.536;2022-07-19T05:43:56;13.00;;;4.32;;
67776;SDS011;54576;52.020;5.536;2022-07-19T05:46:21;9.55;;;3.78;;
67776;SDS011;54576;52.020;5.536;2022-07-19T05:48:47;12.38;;;4.00;;
67776;SDS011;54576;52.020;5.536;2022-07-19T05:51:13;23.95;;;4.22;;
67776;SDS011;54576;52.020;5.536;2022-07-19T05:53:39;23.63;;;4.82;;
67776;SDS011;54576;52.020;5.536;2022-07-19T05:56:05;6.03;;;3.47;;
67776;SDS011;54576;52.020;5.536;2022-07-19T05:58:31;16.50;;;4.50;;
67776;SDS011;54576;52.020;5.536;2022-07-19T06:00:57;15.13;;;4.68;;
67776;SDS011;54576;52.020;5.536;2022-07-19T06:03:41;12.98;;;4.13;;
67776;SDS011;54576;52.020;5.536;2022-07-19T06:06:06;21.63;;;4.22;;
67776;SDS011;54576;52.020;5.536;2022-07-19T06:08:32;14.73;;;4.35;;
67776;SDS011;54576;52.020;5.536;2022-07-19T06:10:57;10.50;;;4.10;;
67776;SDS011;54576;52.020;5.536;2022-07-19T06:13:23;14.15;;;4.88;;
67776;SDS011;54576;52.020;5.536;2022-07-19T06:15:50;12.07;;;4.20;;
67776;SDS011;54576;52.020;5.536;2022-07-19T06:18:16;14.43;;;4.72;;
67776;SDS011;54576;52.020;5.536;2022-07-19T06:20:42;11.60;;;4.03;;
67776;SDS011;54576;52.020;5.536;2022-07-19T06:23:07;11.27;;;4.10;;
67776;SDS011;54576;52.020;5.536;2022-07-19T06:25:33;13.98;;;3.90;;
67776;SDS011;54576;52.020;5.536;2022-07-19T06:27:59;10.57;;;4.18;;
67776;SDS011;54576;52.020;5.536;2022-07-19T06:30:24;12.40;;;4.10;;
67776;SDS011;54576;52.020;5.536;2022-07-19T06:32:50;10.93;;;3.40;;
67776;SDS011;54576;52.020;5.536;2022-07-19T06:35:16;13.82;;;4.47;;
67776;SDS011;54576;52.020;5.536;2022-07-19T06:37:41;15.23;;;4.13;;
67776;SDS011;54576;52.020;5.536;2022-07-19T06:40:07;16.10;;;4.07;;
67776;SDS011;54576;52.020;5.536;2022-07-19T06:42:33;17.65;;;3.85;;
67776;SDS011;54576;52.020;5.536;2022-07-19T06:44:59;12.10;;;3.60;;
67776;SDS011;54576;52.020;5.536;2022-07-19T06:47:27;10.40;;;3.42;;
67776;SDS011;54576;52.020;5.536;2022-07-19T06:49:55;14.70;;;4.07;;
67776;SDS011;54576;52.020;5.536;2022-07-19T06:52:21;21.35;;;3.95;;
67776;SDS011;54576;52.020;5.536;2022-07-19T06:54:46;15.18;;;4.00;;
67776;SDS011;54576;52.020;5.536;2022-07-19T06:57:12;15.10;;;3.75;;
67776;SDS011;54576;52.020;5.536;2022-07-19T06:59:37;11.45;;;3.47;;
67776;SDS011;54576;52.020;5.536;2022-07-19T07:02:03;22.38;;;3.72;;
67776;SDS011;54576;52.020;5.536;2022-07-19T07:04:29;9.32;;;3.45;;
67776;SDS011;54576;52.020;5.536;2022-07-19T07:06:56;13.90;;;3.80;;
67776;SDS011;54576;52.020;5.536;2022-07-19T07:09:23;10.05;;;3.45;;
67776;SDS011;54576;52.020;5.536;2022-07-19T07:11:48;15.18;;;3.40;;
67776;SDS011;54576;52.020;5.536;2022-07-19T07:14:14;15.95;;;3.58;;
67776;SDS011;54576;52.020;5.536;2022-07-19T07:16:40;13.20;;;3.47;;
67776;SDS011;54576;52.020;5.536;2022-07-19T07:19:05;12.80;;;3.83;;
67776;SDS011;54576;52.020;5.536;2022-07-19T07:21:31;21.60;;;3.63;;
67776;SDS011;54576;52.020;5.536;2022-07-19T07:24:00;21.50;;;3.60;;
67776;SDS011;54576;52.020;5.536;2022-07-19T07:26:26;13.90;;;3.53;;
67776;SDS011;54576;52.020;5.536;2022-07-19T07:28:52;12.32;;;3.45;;
67776;SDS011;54576;52.020;5.536;2022-07-19T07:31:18;8.68;;;3.40;;
67776;SDS011;54576;52.020;5.536;2022-07-19T07:33:43;21.63;;;4.20;;
67776;SDS011;54576;52.020;5.536;2022-07-19T07:36:09;15.95;;;4.00;;
67776;SDS011;54576;52.020;5.536;2022-07-19T07:38:35;20.48;;;4.25;;
67776;SDS011;54576;52.020;5.536;2022-07-19T07:41:01;21.10;;;4.07;;
67776;SDS011;54576;52.020;5.536;2022-07-19T07:43:27;23.00;;;4.32;;
67776;SDS011;54576;52.020;5.536;2022-07-19T07:45:53;11.40;;;3.80;;
67776;SDS011;54576;52.020;5.536;2022-07-19T07:48:18;15.27;;;4.38;;
67776;SDS011;54576;52.020;5.536;2022-07-19T07:50:44;14.43;;;3.63;;
67776;SDS011;54576;52.020;5.536;2022-07-19T07:53:10;19.50;;;4.13;;
67776;SDS011;54576;52.020;5.536;2022-07-19T07:55:35;25.92;;;4.45;;
67776;SDS011;54576;52.020;5.536;2022-07-19T07:58:04;14.68;;;4.00;;
67776;SDS011;54576;52.020;5.536;2022-07-19T08:00:34;14.85;;;4.25;;
67776;SDS011;54576;52.020;5.536;2022-07-19T08:03:00;18.70;;;4.00;;
67776;SDS011;54576;52.020;5.536;2022-07-19T08:05:26;9.10;;;4.47;;
67776;SDS011;54576;52.020;5.536;2022-07-19T08:07:52;20.85;;;4.68;;
67776;SDS011;54576;52.020;5.536;2022-07-19T08:10:19;13.00;;;4.32;;
67776;SDS011;54576;52.020;5.536;2022-07-19T08:12:46;23.83;;;3.80;;
67776;SDS011;54576;52.020;5.536;2022-07-19T08:15:11;19.95;;;4.57;;
67776;SDS011;54576;52.020;5.536;2022-07-19T08:17:37;17.83;;;4.70;;
67776;SDS011;54576;52.020;5.536;2022-07-19T08:20:03;20.95;;;4.43;;
67776;SDS011;54576;52.020;5.536;2022-07-19T08:22:29;16.33;;;4.55;;
67776;SDS011;54576;52.020;5.536;2022-07-19T08:24:55;32.05;;;4.32;;
67776;SDS011;54576;52.020;5.536;2022-07-19T08:27:20;14.00;;;4.68;;
67776;SDS011;54576;52.020;5.536;2022-07-19T08:29:46;14.20;;;4.50;;
67776;SDS011;54576;52.020;5.536;2022-07-19T08:32:11;13.90;;;4.10;;
67776;SDS011;54576;52.020;5.536;2022-07-19T08:34:37;14.32;;;4.13;;
67776;SDS011;54576;52.020;5.536;2022-07-19T08:37:03;19.40;;;3.92;;
67776;SDS011;54576;52.020;5.536;2022-07-19T08:39:28;22.15;;;4.53;;
67776;SDS011;54576;52.020;5.536;2022-07-19T08:41:54;14.90;;;4.32;;
67776;SDS011;54576;52.020;5.536;2022-07-19T08:44:20;15.23;;;4.47;;
67776;SDS011;54576;52.020;5.536;2022-07-19T08:46:47;13.25;;;4.75;;
67776;SDS011;54576;52.020;5.536;2022-07-19T08:49:14;14.98;;;4.07;;
67776;SDS011;54576;52.020;5.536;2022-07-19T08:51:41;19.58;;;4.18;;
67776;SDS011;54576;52.020;5.536;2022-07-19T08:54:07;13.40;;;4.33;;
67776;SDS011;54576;52.020;5.536;2022-07-19T08:56:33;13.20;;;3.65;;
67776;SDS011;54576;52.020;5.536;2022-07-19T08:59:17;12.68;;;3.75;;
67776;SDS011;54576;52.020;5.536;2022-07-19T09:01:43;21.35;;;3.80;;
67776;SDS011;54576;52.020;5.536;2022-07-19T09:04:17;13.65;;;3.53;;
67776;SDS011;54576;52.020;5.536;2022-07-19T09:06:46;17.27;;;3.35;;
67776;SDS011;54576;52.020;5.536;2022-07-19T09:09:15;17.60;;;3.22;;
67776;SDS011;54576;52.020;5.536;2022-07-19T09:11:43;16.85;;;3.47;;
67776;SDS011;54576;52.020;5.536;2022-07-19T09:14:14;20.08;;;3.65;;
67776;SDS011;54576;52.020;5.536;2022-07-19T09:16:54;13.70;;;3.42;;
67776;SDS011;54576;52.020;5.536;2022-07-19T09:19:35;10.50;;;3.15;;
67776;SDS011;54576;52.020;5.536;2022-07-19T09:22:09;11.60;;;3.50;;
67776;SDS011;54576;52.020;5.536;2022-07-19T09:24:43;19.52;;;3.50;;
67776;SDS011;54576;52.020;5.536;2022-07-19T09:27:11;12.45;;;3.72;;
67776;SDS011;54576;52.020;5.536;2022-07-19T09:29:39;25.13;;;4.30;;
67776;SDS011;54576;52.020;5.536;2022-07-19T09:32:08;17.02;;;3.50;;
67776;SDS011;54576;52.020;5.536;2022-07-19T09:35:00;31.30;;;3.88;;
67776;SDS011;54576;52.020;5.536;2022-07-19T09:37:32;16.90;;;3.05;;
67776;SDS011;54576;52.020;5.536;2022-07-19T09:39:58;21.25;;;2.95;;
67776;SDS011;54576;52.020;5.536;2022-07-19T09:42:35;13.50;;;3.35;;
67776;SDS011;54576;52.020;5.536;2022-07-19T09:45:11;12.85;;;3.42;;
67776;SDS011;54576;52.020;5.536;2022-07-19T09:47:38;8.60;;;3.35;;
67776;SDS011;54576;52.020;5.536;2022-07-19T09:50:13;15.95;;;3.20;;
67776;SDS011;54576;52.020;5.536;2022-07-19T09:52:42;19.58;;;2.88;;
67776;SDS011;54576;52.020;5.536;2022-07-19T09:55:08;23.65;;;3.35;;
67776;SDS011;54576;52.020;5.536;2022-07-19T09:57:35;16.98;;;2.88;;
67776;SDS011;54576;52.020;5.536;2022-07-19T10:00:06;18.88;;;3.65;;
67776;SDS011;54576;52.020;5.536;2022-07-19T10:02:34;12.15;;;2.72;;
67776;SDS011;54576;52.020;5.536;2022-07-19T10:05:02;10.90;;;2.83;;
67776;SDS011;54576;52.020;5.536;2022-07-19T10:07:30;7.97;;;3.05;;
67776;SDS011;54576;52.020;5.536;2022-07-19T10:10:02;7.72;;;2.97;;
67776;SDS011;54576;52.020;5.536;2022-07-19T10:12:30;13.02;;;2.92;;
67776;SDS011;54576;52.020;5.536;2022-07-19T10:15:00;14.40;;;3.15;;
67776;SDS011;54576;52.020;5.536;2022-07-19T10:17:28;21.40;;;3.20;;
67776;SDS011;54576;52.020;5.536;2022-07-19T10:19:59;10.48;;;2.97;;
67776;SDS011;54576;52.020;5.536;2022-07-19T10:22:26;13.87;;;3.10;;
67776;SDS011;54576;52.020;5.536;2022-07-19T10:29:49;15.63;;;3.35;;
67776;SDS011;54576;52.020;5.536;2022-07-19T10:32:21;13.90;;;2.95;;
67776;SDS011;54576;52.020;5.536;2022-07-19T10:37:52;17.98;;;3.95;;
67776;SDS011;54576;52.020;5.536;2022-07-19T10:45:41;12.25;;;3.10;;
67776;SDS011;54576;52.020;5.536;2022-07-19T10:48:08;8.43;;;2.88;;
67776;SDS011;54576;52.020;5.536;2022-07-19T10:53:10;10.32;;;2.70;;
67776;SDS011;54576;52.020;5.536;2022-07-19T10:55:36;7.95;;;2.80;;
67776;SDS011;54576;52.020;5.536;2022-07-19T11:00:30;17.23;;;2.97;;
67776;SDS011;54576;52.020;5.536;2022-07-19T11:05:55;7.95;;;2.45;;
67776;SDS011;54576;52.020;5.536;2022-07-19T11:08:38;23.42;;;3.00;;
67776;SDS011;54576;52.020;5.536;2022-07-19T11:11:09;7.10;;;2.90;;
67776;SDS011;54576;52.020;5.536;2022-07-19T11:13:39;12.63;;;3.33;;
67776;SDS011;54576;52.020;5.536;2022-07-19T11:16:08;13.25;;;3.00;;
67776;SDS011;54576;52.020;5.536;2022-07-19T11:18:34;13.40;;;2.40;;
67776;SDS011;54576;52.020;5.536;2022-07-19T11:21:00;12.93;;;2.83;;
67776;SDS011;54576;52.020;5.536;2022-07-19T11:23:28;9.60;;;2.72;;
67776;SDS011;54576;52.020;5.536;2022-07-19T11:28:31;16.92;;;2.30;;
67776;SDS011;54576;52.020;5.536;2022-07-19T11:30:57;9.65;;;2.45;;
67776;SDS011;54576;52.020;5.536;2022-07-19T11:33:22;6.47;;;2.45;;
67776;SDS011;54576;52.020;5.536;2022-07-19T11:35:54;18.23;;;2.33;;
67776;SDS011;54576;52.020;5.536;2022-07-19T11:38:21;16.55;;;2.10;;
67776;SDS011;54576;52.020;5.536;2022-07-19T11:40:47;5.53;;;1.88;;
67776;SDS011;54576;52.020;5.536;2022-07-19T11:43:13;5.55;;;2.13;;
67776;SDS011;54576;52.020;5.536;2022-07-19T11:45:48;18.98;;;2.28;;
67776;SDS011;54576;52.020;5.536;2022-07-19T11:48:23;17.40;;;1.98;;
67776;SDS011;54576;52.020;5.536;2022-07-19T11:51:00;12.50;;;2.08;;
67776;SDS011;54576;52.020;5.536;2022-07-19T11:53:31;10.10;;;1.88;;
67776;SDS011;54576;52.020;5.536;2022-07-19T11:55:57;8.57;;;1.83;;
67776;SDS011;54576;52.020;5.536;2022-07-19T11:58:26;9.93;;;2.00;;
67776;SDS011;54576;52.020;5.536;2022-07-19T12:00:52;6.30;;;1.88;;
67776;SDS011;54576;52.020;5.536;2022-07-19T12:03:24;7.35;;;1.45;;
67776;SDS011;54576;52.020;5.536;2022-07-19T12:06:02;5.28;;;2.00;;
67776;SDS011;54576;52.020;5.536;2022-07-19T12:08:42;13.82;;;2.60;;
67776;SDS011;54576;52.020;5.536;2022-07-19T12:13:42;10.38;;;1.85;;
67776;SDS011;54576;52.020;5.536;2022-07-19T12:16:08;5.70;;;1.65;;
67776;SDS011;54576;52.020;5.536;2022-07-19T12:24:13;23.40;;;1.92;;
67776;SDS011;54576;52.020;5.536;2022-07-19T12:29:26;11.80;;;2.35;;
67776;SDS011;54576;52.020;5.536;2022-07-19T12:31:56;12.05;;;2.15;;
67776;SDS011;54576;52.020;5.536;2022-07-19T12:34:24;6.47;;;1.92;;
67776;SDS011;54576;52.020;5.536;2022-07-19T12:36:50;5.38;;;2.10;;
67776;SDS011;54576;52.020;5.536;2022-07-19T12:39:19;7.22;;;1.80;;
67776;SDS011;54576;52.020;5.536;2022-07-19T12:41:58;10.00;;;2.15;;
67776;SDS011;54576;52.020;5.536;2022-07-19T12:44:35;3.92;;;1.70;;
67776;SDS011;54576;52.020;5.536;2022-07-19T12:47:01;8.43;;;1.80;;
67776;SDS011;54576;52.020;5.536;2022-07-19T12:49:43;6.93;;;2.00;;
67776;SDS011;54576;52.020;5.536;2022-07-19T12:52:10;5.28;;;2.05;;
67776;SDS011;54576;52.020;5.536;2022-07-19T12:54:36;7.35;;;1.90;;
67776;SDS011;54576;52.020;5.536;2022-07-19T12:57:02;8.80;;;1.95;;
67776;SDS011;54576;52.020;5.536;2022-07-19T12:59:28;3.80;;;1.50;;
67776;SDS011;54576;52.020;5.536;2022-07-19T13:02:16;5.63;;;2.25;;
67776;SDS011;54576;52.020;5.536;2022-07-19T13:04:43;9.93;;;2.20;;
67776;SDS011;54576;52.020;5.536;2022-07-19T13:07:11;11.90;;;2.17;;
67776;SDS011;54576;52.020;5.536;2022-07-19T13:09:38;8.70;;;2.28;;
67776;SDS011;54576;52.020;5.536;2022-07-19T13:12:05;5.72;;;1.98;;
67776;SDS011;54576;52.020;5.536;2022-07-19T13:14:31;10.70;;;1.92;;
67776;SDS011;54576;52.020;5.536;2022-07-19T13:16:58;12.53;;;2.10;;
67776;SDS011;54576;52.020;5.536;2022-07-19T13:19:24;14.57;;;2.03;;
67776;SDS011;54576;52.020;5.536;2022-07-19T13:21:50;11.77;;;2.20;;
67776;SDS011;54576;52.020;5.536;2022-07-19T13:24:17;8.40;;;2.35;;
67776;SDS011;54576;52.020;5.536;2022-07-19T13:26:43;22.98;;;2.42;;
67776;SDS011;54576;52.020;5.536;2022-07-19T13:29:08;15.13;;;2.40;;
67776;SDS011;54576;52.020;5.536;2022-07-19T13:31:34;9.73;;;2.10;;
67776;SDS011;54576;52.020;5.536;2022-07-19T13:34:00;10.55;;;2.10;;
67776;SDS011;54576;52.020;5.536;2022-07-19T13:36:26;4.13;;;1.88;;
67776;SDS011;54576;52.020;5.536;2022-07-19T13:38:52;11.10;;;2.00;;
67776;SDS011;54576;52.020;5.536;2022-07-19T13:41:18;15.77;;;2.10;;
67776;SDS011;54576;52.020;5.536;2022-07-19T13:43:44;13.20;;;2.35;;
67776;SDS011;54576;52.020;5.536;2022-07-19T13:46:11;8.10;;;2.00;;
67776;SDS011;54576;52.020;5.536;2022-07-19T13:48:37;10.23;;;1.90;;
67776;SDS011;54576;52.020;5.536;2022-07-19T13:51:04;10.27;;;2.08;;
67776;SDS011;54576;52.020;5.536;2022-07-19T13:53:29;13.60;;;2.00;;
67776;SDS011;54576;52.020;5.536;2022-07-19T13:55:55;6.93;;;1.83;;
67776;SDS011;54576;52.020;5.536;2022-07-19T13:58:21;7.90;;;2.03;;
67776;SDS011;54576;52.020;5.536;2022-07-19T14:00:46;7.53;;;1.90;;
67776;SDS011;54576;52.020;5.536;2022-07-19T14:03:13;13.38;;;1.83;;
67776;SDS011;54576;52.020;5.536;2022-07-19T14:05:42;8.02;;;2.22;;
67776;SDS011;54576;52.020;5.536;2022-07-19T14:08:11;11.65;;;2.58;;
67776;SDS011;54576;52.020;5.536;2022-07-19T14:10:38;12.68;;;2.35;;
67776;SDS011;54576;52.020;5.536;2022-07-19T14:13:04;20.60;;;2.40;;
67776;SDS011;54576;52.020;5.536;2022-07-19T14:15:30;8.82;;;1.77;;
67776;SDS011;54576;52.020;5.536;2022-07-19T14:17:56;9.75;;;2.15;;
67776;SDS011;54576;52.020;5.536;2022-07-19T14:20:23;14.68;;;2.15;;
67776;SDS011;54576;52.020;5.536;2022-07-19T14:22:48;9.20;;;2.50;;
67776;SDS011;54576;52.020;5.536;2022-07-19T14:25:14;10.23;;;2.25;;
67776;SDS011;54576;52.020;5.536;2022-07-19T14:27:40;9.35;;;1.80;;
67776;SDS011;54576;52.020;5.536;2022-07-19T14:30:07;7.65;;;2.10;;
67776;SDS011;54576;52.020;5.536;2022-07-19T14:32:33;4.47;;;2.00;;
67776;SDS011;54576;52.020;5.536;2022-07-19T14:34:59;24.20;;;3.05;;
67776;SDS011;54576;52.020;5.536;2022-07-19T14:37:25;15.25;;;2.35;;
67776;SDS011;54576;52.020;5.536;2022-07-19T14:39:50;9.18;;;2.00;;
67776;SDS011;54576;52.020;5.536;2022-07-19T14:42:16;5.53;;;2.25;;
67776;SDS011;54576;52.020;5.536;2022-07-19T14:44:42;8.43;;;1.90;;
67776;SDS011;54576;52.020;5.536;2022-07-19T14:47:07;12.05;;;2.42;;
67776;SDS011;54576;52.020;5.536;2022-07-19T14:49:34;18.33;;;2.17;;
67776;SDS011;54576;52.020;5.536;2022-07-19T14:52:00;10.73;;;2.33;;
67776;SDS011;54576;52.020;5.536;2022-07-19T14:54:26;6.20;;;2.30;;
67776;SDS011;54576;52.020;5.536;2022-07-19T14:56:52;7.70;;;2.58;;
67776;SDS011;54576;52.020;5.536;2022-07-19T14:59:18;13.30;;;2.20;;
67776;SDS011;54576;52.020;5.536;2022-07-19T15:01:45;5.35;;;1.95;;
67776;SDS011;54576;52.020;5.536;2022-07-19T15:04:11;7.53;;;1.80;;
67776;SDS011;54576;52.020;5.536;2022-07-19T15:06:37;11.23;;;1.90;;
67776;SDS011;54576;52.020;5.536;2022-07-19T15:09:02;10.15;;;1.92;;
67776;SDS011;54576;52.020;5.536;2022-07-19T15:11:28;11.27;;;2.28;;
67776;SDS011;54576;52.020;5.536;2022-07-19T15:13:57;6.00;;;2.08;;
67776;SDS011;54576;52.020;5.536;2022-07-19T15:16:23;5.35;;;1.90;;